createdAt,value
2019-02-07T00:00:06.325Z,3.50
2019-02-07T00:02:34.672Z,2.90
2019-02-07T00:05:02.147Z,3.50
2019-02-07T00:07:29.599Z,2.90
2019-02-07T00:09:57.056Z,3.47
2019-02-07T00:12:24.518Z,3.12
2019-02-07T00:14:51.972Z,3.27
2019-02-07T00:17:19.437Z,2.98
2019-02-07T00:19:47.299Z,3.58
2019-02-07T00:22:14.762Z,3.30
2019-02-07T00:24:43.210Z,3.50
2019-02-07T00:27:10.876Z,2.90
2019-02-07T00:29:38.333Z,3.58
2019-02-07T00:32:27.245Z,3.52
2019-02-07T00:34:54.669Z,3.15
2019-02-07T00:37:22.133Z,3.37
2019-02-07T00:39:49.604Z,2.95
2019-02-07T00:42:17.072Z,3.22
2019-02-07T00:44:51.010Z,2.60
2019-02-07T00:47:13.625Z,3.08
2019-02-07T00:49:41.384Z,2.75
2019-02-07T00:52:09.004Z,3.15
2019-02-07T00:54:36.469Z,3.02
2019-02-07T00:57:04.023Z,2.90
2019-02-07T00:59:31.485Z,2.70
2019-02-07T01:01:58.939Z,2.87
2019-02-07T01:04:26.389Z,2.62
2019-02-07T01:06:53.852Z,3.02
2019-02-07T01:09:21.317Z,2.65
2019-02-07T01:11:48.860Z,3.08
2019-02-07T01:14:16.452Z,2.65
2019-02-07T01:16:43.881Z,3.00
2019-02-07T01:19:11.401Z,2.55
2019-02-07T01:21:38.834Z,2.70
2019-02-07T01:24:06.751Z,2.30
2019-02-07T01:29:09.660Z,2.20
2019-02-07T01:31:37.121Z,2.77
2019-02-07T01:34:04.699Z,2.50
2019-02-07T01:36:32.153Z,2.52
2019-02-07T01:38:59.910Z,2.45
2019-02-07T01:41:27.377Z,2.70
2019-02-07T01:43:54.832Z,2.12
2019-02-07T01:46:22.291Z,2.67
2019-02-07T01:48:49.745Z,2.60
2019-02-07T01:51:17.252Z,2.45
2019-02-07T01:53:44.706Z,2.77
2019-02-07T01:56:12.157Z,2.60
2019-02-07T01:58:39.624Z,2.50
2019-02-07T02:01:07.088Z,2.17
2019-02-07T02:03:34.541Z,2.00
2019-02-07T02:06:01.995Z,2.47
2019-02-07T02:08:29.458Z,2.50
2019-02-07T02:10:56.908Z,2.25
2019-02-07T02:13:24.376Z,2.40
2019-02-07T02:15:51.833Z,2.00
2019-02-07T02:18:19.344Z,2.35
2019-02-07T02:20:46.820Z,1.82
2019-02-07T02:23:14.269Z,2.25
2019-02-07T02:25:41.739Z,2.47
2019-02-07T02:28:09.190Z,2.22
2019-02-07T02:30:36.655Z,2.40
2019-02-07T02:33:04.507Z,2.10
2019-02-07T02:35:31.968Z,2.40
2019-02-07T02:37:59.423Z,1.98
2019-02-07T02:40:26.896Z,2.40
2019-02-07T02:42:54.351Z,1.92
2019-02-07T02:45:22.223Z,2.10
2019-02-07T02:47:49.664Z,1.82
2019-02-07T02:50:17.999Z,2.25
2019-02-07T02:52:45.493Z,2.20
2019-02-07T02:55:14.529Z,1.70
2019-02-07T02:57:41.988Z,2.10
2019-02-07T03:00:12.588Z,1.98
2019-02-07T03:02:57.952Z,2.27
2019-02-07T03:05:27.013Z,1.80
2019-02-07T03:08:05.093Z,2.50
2019-02-07T03:10:46.223Z,1.80
2019-02-07T03:13:30.759Z,2.02
2019-02-07T03:16:18.216Z,2.15
2019-02-07T03:18:47.238Z,1.75
2019-02-07T03:21:34.748Z,2.10
2019-02-07T03:24:19.847Z,1.70
2019-02-07T03:26:49.023Z,2.20
2019-02-07T03:29:34.520Z,1.57
2019-02-07T03:32:06.305Z,2.42
2019-02-07T03:34:38.362Z,2.10
2019-02-07T03:37:19.778Z,1.60
2019-02-07T03:39:48.845Z,2.50
2019-02-07T03:42:17.888Z,2.20
2019-02-07T03:44:49.648Z,3.37
2019-02-07T03:47:33.765Z,2.02
2019-02-07T03:50:08.798Z,3.05
2019-02-07T03:52:49.763Z,2.22
2019-02-07T03:55:27.549Z,1.77
2019-02-07T03:57:56.581Z,3.40
2019-02-07T04:00:41.077Z,1.60
2019-02-07T04:03:10.154Z,3.35
2019-02-07T04:05:51.121Z,1.85
2019-02-07T04:08:32.605Z,3.12
2019-02-07T04:11:17.423Z,3.05
2019-02-07T04:13:49.405Z,1.77
2019-02-07T04:16:27.541Z,3.52
2019-02-07T04:19:08.808Z,2.70
2019-02-07T04:21:43.812Z,3.52
2019-02-07T04:24:12.826Z,2.42
2019-02-07T04:26:48.037Z,3.00
2019-02-07T04:29:26.119Z,2.70
2019-02-07T04:32:07.507Z,2.77
2019-02-07T04:34:48.248Z,2.10
2019-02-07T04:37:20.159Z,2.10
2019-02-07T04:40:07.581Z,2.10
2019-02-07T04:42:36.617Z,4.30
2019-02-07T04:45:07.261Z,4.12
2019-02-07T04:47:54.417Z,2.83
2019-02-07T04:50:32.325Z,2.83
2019-02-07T04:53:07.256Z,2.70
2019-02-07T04:55:39.278Z,2.22
2019-02-07T04:58:08.327Z,2.83
2019-02-07T05:00:43.388Z,4.20
2019-02-07T05:03:27.506Z,7.35
2019-02-07T05:06:08.508Z,6.12
2019-02-07T05:08:40.588Z,7.10
2019-02-07T05:11:24.601Z,7.83
2019-02-07T05:13:59.686Z,8.45
2019-02-07T05:16:39.232Z,8.50
2019-02-07T05:19:05.481Z,10.58
2019-02-07T05:21:40.577Z,13.62
2019-02-07T05:24:18.972Z,13.65
2019-02-07T05:26:59.542Z,19.52
2019-02-07T05:29:31.608Z,19.57
2019-02-07T05:32:03.632Z,22.15
2019-02-07T05:34:32.673Z,23.12
2019-02-07T05:37:04.158Z,23.60
2019-02-07T05:39:36.037Z,24.02
2019-02-07T05:42:22.747Z,25.57
2019-02-07T05:45:00.969Z,25.37
2019-02-07T05:47:38.957Z,26.10
2019-02-07T05:50:21.520Z,27.13
2019-02-07T05:52:59.778Z,22.02
2019-02-07T05:55:45.332Z,22.35
2019-02-07T05:58:14.360Z,18.20
2019-02-07T06:00:58.507Z,18.45
2019-02-07T06:03:30.721Z,27.25
2019-02-07T06:06:16.370Z,27.85
2019-02-07T06:09:00.508Z,22.35
2019-02-07T06:11:41.577Z,20.90
2019-02-07T06:14:27.049Z,17.52
2019-02-07T06:17:02.664Z,16.27
2019-02-07T06:19:36.062Z,16.55
2019-02-07T06:22:11.133Z,15.38
2019-02-07T06:24:49.206Z,15.40
2019-02-07T06:27:27.417Z,18.15
2019-02-07T06:29:56.493Z,16.73
2019-02-07T06:32:31.332Z,16.42
2019-02-07T06:35:06.226Z,16.97
2019-02-07T06:37:35.807Z,16.93
2019-02-07T06:40:05.455Z,16.87
2019-02-07T06:42:34.493Z,17.62
2019-02-07T06:45:09.364Z,18.17
2019-02-07T06:47:50.344Z,16.62
2019-02-07T06:50:28.329Z,15.93
2019-02-07T06:53:11.176Z,15.90
2019-02-07T06:55:40.153Z,15.78
2019-02-07T06:58:12.320Z,14.40
2019-02-07T07:00:41.349Z,16.12
2019-02-07T07:03:13.375Z,14.83
2019-02-07T07:05:42.400Z,12.37
2019-02-07T07:08:11.436Z,13.70
2019-02-07T07:10:43.349Z,12.20
2019-02-07T07:13:12.580Z,14.15
2019-02-07T07:15:41.607Z,15.50
2019-02-07T07:18:19.985Z,16.00
2019-02-07T07:20:55.266Z,14.25
2019-02-07T07:23:24.703Z,14.47
2019-02-07T07:26:05.446Z,13.00
2019-02-07T07:28:40.445Z,12.23
2019-02-07T07:31:09.475Z,11.08
2019-02-07T07:33:44.036Z,11.00
2019-02-07T07:36:16.071Z,11.97
2019-02-07T07:39:01.843Z,12.40
2019-02-07T07:41:30.877Z,13.40
2019-02-07T07:44:02.790Z,10.90
2019-02-07T07:46:47.853Z,9.10
2019-02-07T07:49:19.385Z,7.60
2019-02-07T07:51:57.240Z,7.20
2019-02-07T07:54:38.519Z,8.23
2019-02-07T07:57:13.051Z,7.00
2019-02-07T07:59:42.100Z,7.15
2019-02-07T08:02:11.134Z,7.53
2019-02-07T08:04:55.074Z,8.48
2019-02-07T08:07:30.212Z,7.50
2019-02-07T08:10:17.233Z,7.33
2019-02-07T08:12:52.269Z,6.20
2019-02-07T08:15:37.663Z,6.30
2019-02-07T08:18:06.701Z,11.53
2019-02-07T08:20:52.409Z,8.10
2019-02-07T08:23:24.449Z,6.90
2019-02-07T08:26:09.725Z,7.05
2019-02-07T08:28:38.758Z,6.58
2019-02-07T08:31:11.258Z,6.05
2019-02-07T08:33:43.285Z,6.05
2019-02-07T08:36:15.042Z,5.92
2019-02-07T08:39:00.446Z,19.82
2019-02-07T08:41:29.682Z,11.33
2019-02-07T08:44:15.289Z,8.75
2019-02-07T08:47:02.926Z,7.58
2019-02-07T08:49:32.110Z,7.87
2019-02-07T08:52:16.207Z,7.40
2019-02-07T08:55:00.304Z,7.35
2019-02-07T08:57:32.755Z,8.25
2019-02-07T09:00:10.855Z,12.75
2019-02-07T09:02:54.869Z,8.03
2019-02-07T09:05:26.635Z,9.03
2019-02-07T09:08:13.200Z,7.70
2019-02-07T09:10:58.786Z,7.40
2019-02-07T09:13:27.813Z,7.65
2019-02-07T09:15:56.857Z,11.15
2019-02-07T09:18:44.285Z,7.75
2019-02-07T09:21:19.359Z,8.10
2019-02-07T09:23:48.388Z,8.10
2019-02-07T09:26:17.433Z,7.10
2019-02-07T09:28:58.453Z,7.62
2019-02-07T09:31:27.492Z,7.10
2019-02-07T09:34:14.606Z,7.60
2019-02-07T09:37:00.160Z,7.42
2019-02-07T09:39:34.717Z,8.38
2019-02-07T09:42:22.176Z,7.45
2019-02-07T09:45:07.534Z,12.45
2019-02-07T09:47:48.660Z,8.63
2019-02-07T09:50:20.793Z,8.63
2019-02-07T09:53:01.843Z,9.50
2019-02-07T09:55:30.868Z,14.33
2019-02-07T09:58:08.869Z,16.02
2019-02-07T10:00:38.312Z,10.95
2019-02-07T10:03:13.110Z,11.48
2019-02-07T10:05:48.193Z,9.95
2019-02-07T10:08:17.225Z,10.68
2019-02-07T10:10:58.311Z,11.85
2019-02-07T10:13:30.546Z,10.28
2019-02-07T10:16:02.104Z,9.68
2019-02-07T10:18:39.821Z,11.70
2019-02-07T10:21:11.844Z,10.08
2019-02-07T10:23:57.275Z,8.43
2019-02-07T10:26:44.700Z,8.60
2019-02-07T10:29:25.810Z,8.15
2019-02-07T10:31:54.846Z,8.58
2019-02-07T10:34:26.946Z,8.30
2019-02-07T10:37:05.140Z,7.12
2019-02-07T10:39:34.220Z,8.43
2019-02-07T10:42:21.634Z,7.75
2019-02-07T10:44:50.719Z,8.18
2019-02-07T10:47:19.701Z,7.90
2019-02-07T10:50:03.835Z,8.83
2019-02-07T10:52:40.137Z,7.28
2019-02-07T10:55:21.390Z,9.80
2019-02-07T10:57:56.181Z,7.87
2019-02-07T11:00:30.970Z,7.30
2019-02-07T11:03:18.173Z,9.05
2019-02-07T11:05:54.642Z,8.90
2019-02-07T11:08:24.023Z,12.78
2019-02-07T11:11:09.051Z,12.90
2019-02-07T11:13:54.497Z,21.57
2019-02-07T11:16:26.533Z,17.17
2019-02-07T11:18:58.308Z,13.30
2019-02-07T11:21:45.579Z,22.10
2019-02-07T11:24:17.587Z,20.43
2019-02-07T11:26:46.637Z,20.15
2019-02-07T11:29:18.548Z,17.02
2019-02-07T11:31:47.580Z,14.95
2019-02-07T11:34:22.654Z,14.75
2019-02-07T11:36:57.453Z,12.63
2019-02-07T11:39:33.214Z,14.47
2019-02-07T11:42:02.268Z,36.58
2019-02-07T11:44:31.314Z,26.93
2019-02-07T11:47:05.644Z,26.73
2019-02-07T11:49:37.133Z,21.20
2019-02-07T11:52:09.158Z,15.75
2019-02-07T11:54:47.088Z,20.62
2019-02-07T11:57:16.137Z,14.25
2019-02-07T11:59:50.988Z,16.12
2019-02-07T12:02:23.186Z,14.45
2019-02-07T12:04:52.232Z,19.75
2019-02-07T12:07:27.054Z,21.75
2019-02-07T12:09:56.142Z,17.85
2019-02-07T12:12:40.527Z,14.78
2019-02-07T12:15:20.075Z,13.22
2019-02-07T12:17:49.112Z,16.45
2019-02-07T12:20:27.288Z,16.90
2019-02-07T12:22:59.340Z,14.90
2019-02-07T12:25:37.376Z,12.50
2019-02-07T12:28:18.734Z,11.43
2019-02-07T12:30:53.837Z,10.48
2019-02-07T12:33:34.763Z,10.58
2019-02-07T12:36:03.849Z,9.25
2019-02-07T12:38:44.483Z,8.68
2019-02-07T12:41:13.966Z,12.20
2019-02-07T12:43:59.542Z,9.35
2019-02-07T12:46:37.544Z,18.07
2019-02-07T12:49:09.583Z,13.30
2019-02-07T12:51:41.357Z,17.02
2019-02-07T12:54:27.045Z,26.65
2019-02-07T12:57:12.442Z,17.87
2019-02-07T12:59:57.548Z,12.78
2019-02-07T13:02:26.581Z,16.77
2019-02-07T13:05:10.984Z,24.67
2019-02-07T13:07:55.237Z,13.55
2019-02-07T13:10:33.094Z,14.25
2019-02-07T13:13:04.578Z,13.88
2019-02-07T13:15:50.165Z,11.88
2019-02-07T13:18:25.422Z,18.62
2019-02-07T13:20:54.518Z,13.32
2019-02-07T13:23:39.891Z,13.13
2019-02-07T13:26:18.312Z,16.02
2019-02-07T13:28:56.508Z,13.85
2019-02-07T13:31:37.630Z,13.18
2019-02-07T13:34:09.617Z,15.65
2019-02-07T13:36:38.656Z,17.32
2019-02-07T13:39:11.028Z,15.23
2019-02-07T13:41:43.065Z,18.30
2019-02-07T13:44:17.883Z,20.75
2019-02-07T13:46:47.029Z,20.25
2019-02-07T13:49:32.476Z,19.40
2019-02-07T13:52:18.193Z,16.35
2019-02-07T13:54:59.608Z,16.73
2019-02-07T13:57:28.644Z,20.43
2019-02-07T14:00:03.575Z,24.23
2019-02-07T14:02:42.020Z,32.65
2019-02-07T14:05:26.140Z,20.25
2019-02-07T14:08:11.785Z,18.98
2019-02-07T14:10:41.033Z,25.37
2019-02-07T14:13:10.073Z,19.15
2019-02-07T14:15:48.036Z,15.72
2019-02-07T14:18:17.081Z,15.25
2019-02-07T14:20:48.551Z,15.78
2019-02-07T14:23:20.596Z,15.20
2019-02-07T14:25:58.258Z,13.83
2019-02-07T14:28:35.858Z,14.03
2019-02-07T14:31:06.251Z,13.45
2019-02-07T14:33:38.432Z,13.38
2019-02-07T14:36:07.477Z,12.80
2019-02-07T14:38:39.216Z,12.90
2019-02-07T14:41:08.263Z,13.55
2019-02-07T14:43:40.042Z,12.63
2019-02-07T14:46:11.923Z,15.40
2019-02-07T14:48:39.381Z,14.38
2019-02-07T14:51:06.848Z,13.05
2019-02-07T14:53:34.316Z,15.58
2019-02-07T14:56:01.784Z,16.45
2019-02-07T14:58:29.251Z,18.70
2019-02-07T15:00:56.729Z,17.27
2019-02-07T15:03:24.481Z,19.60
2019-02-07T15:05:51.945Z,19.70
2019-02-07T15:08:19.402Z,19.32
2019-02-07T15:10:46.909Z,18.52
2019-02-07T15:13:14.373Z,17.62
2019-02-07T15:15:41.860Z,16.15
2019-02-07T15:18:09.344Z,13.90
2019-02-07T15:20:37.297Z,12.85
2019-02-07T15:23:04.777Z,12.15
2019-02-07T15:25:32.235Z,12.37
2019-02-07T15:27:59.749Z,14.55
2019-02-07T15:30:27.212Z,17.87
2019-02-07T15:32:54.680Z,23.02
2019-02-07T15:35:23.712Z,29.55
2019-02-07T15:37:51.189Z,22.42
2019-02-07T15:40:20.204Z,19.25
2019-02-07T15:42:47.681Z,18.52
2019-02-07T15:45:15.150Z,20.10
2019-02-07T15:47:42.609Z,22.90
2019-02-07T15:50:11.648Z,22.10
2019-02-07T15:52:39.134Z,21.17
2019-02-07T15:55:06.596Z,19.00
2019-02-07T15:57:34.059Z,18.05
2019-02-07T16:00:02.364Z,18.05
2019-02-07T16:02:29.843Z,17.60
2019-02-07T16:04:57.905Z,16.07
2019-02-07T16:07:25.374Z,17.23
2019-02-07T16:09:52.844Z,15.78
2019-02-07T16:12:20.307Z,15.85
2019-02-07T16:14:47.780Z,16.07
2019-02-07T16:17:15.236Z,15.50
2019-02-07T16:19:42.708Z,15.28
2019-02-07T16:22:10.164Z,14.73
2019-02-07T16:24:37.636Z,15.00
2019-02-07T16:27:05.092Z,15.23
2019-02-07T16:29:32.572Z,15.30
2019-02-07T16:32:00.035Z,14.87
2019-02-07T16:34:27.522Z,14.40
2019-02-07T16:36:55.028Z,15.05
2019-02-07T16:39:22.496Z,15.48
2019-02-07T16:41:49.962Z,14.95
2019-02-07T16:44:17.433Z,15.53
2019-02-07T16:46:44.932Z,13.83
2019-02-07T16:49:12.369Z,15.15
2019-02-07T16:51:39.836Z,14.95
2019-02-07T16:54:07.303Z,14.65
2019-02-07T16:56:34.752Z,14.35
2019-02-07T16:59:02.221Z,13.98
2019-02-07T17:01:29.681Z,15.20
2019-02-07T17:03:57.145Z,13.62
2019-02-07T17:06:24.806Z,14.15
2019-02-07T17:08:52.276Z,13.98
2019-02-07T17:11:19.729Z,14.80
2019-02-07T17:13:47.192Z,14.07
2019-02-07T17:16:14.660Z,13.75
2019-02-07T17:18:42.124Z,13.88
2019-02-07T17:21:12.005Z,13.68
2019-02-07T17:23:38.700Z,13.98
2019-02-07T17:26:06.179Z,13.80
2019-02-07T17:28:33.636Z,13.90
2019-02-07T17:31:01.146Z,13.18
2019-02-07T17:33:28.606Z,13.25
2019-02-07T17:35:56.068Z,13.60
2019-02-07T17:38:23.536Z,13.62
2019-02-07T17:40:51.397Z,13.70
2019-02-07T17:43:18.910Z,13.50
2019-02-07T17:45:46.382Z,14.03
2019-02-07T17:48:13.913Z,13.03
2019-02-07T17:50:41.376Z,13.35
2019-02-07T17:53:09.438Z,13.80
2019-02-07T17:55:36.917Z,13.13
2019-02-07T17:58:05.198Z,12.78
2019-02-07T18:00:38.373Z,12.98
2019-02-07T18:03:05.828Z,12.50
2019-02-07T18:05:33.332Z,13.08
2019-02-07T18:08:00.802Z,12.07
2019-02-07T18:10:28.720Z,13.60
2019-02-07T18:12:56.348Z,12.23
2019-02-07T18:15:23.934Z,13.20
2019-02-07T18:17:51.395Z,12.82
2019-02-07T18:20:19.448Z,13.25
2019-02-07T18:22:46.923Z,12.47
2019-02-07T18:25:14.388Z,13.08
2019-02-07T18:27:42.127Z,13.45
2019-02-07T18:30:11.188Z,12.18
2019-02-07T18:32:38.957Z,18.15
2019-02-07T18:35:06.537Z,15.13
2019-02-07T18:37:33.996Z,11.43
2019-02-07T18:40:01.474Z,10.25
2019-02-07T18:42:29.006Z,9.90
2019-02-07T18:44:56.509Z,10.95
2019-02-07T18:47:23.956Z,9.08
2019-02-07T18:49:51.435Z,9.08
2019-02-07T18:52:18.884Z,8.88
2019-02-07T18:54:46.348Z,8.28
2019-02-07T18:57:15.724Z,17.62
2019-02-07T18:59:43.442Z,10.50
2019-02-07T19:02:10.881Z,11.30
2019-02-07T19:04:38.348Z,8.35
2019-02-07T19:07:05.805Z,8.23
2019-02-07T19:09:33.573Z,7.58
2019-02-07T19:12:01.043Z,7.53
2019-02-07T19:14:50.298Z,7.58
2019-02-07T19:16:32.872Z,8.50
2019-02-07T19:18:15.404Z,8.78
2019-02-07T19:19:57.966Z,8.85
2019-02-07T19:21:40.509Z,8.85
2019-02-07T19:23:23.053Z,8.60
2019-02-07T19:25:06.512Z,8.48
2019-02-07T19:26:49.060Z,9.20
2019-02-07T19:28:31.620Z,9.38
2019-02-07T19:30:19.084Z,8.63
2019-02-07T19:32:01.617Z,9.30
2019-02-07T19:33:45.984Z,9.00
2019-02-07T19:35:28.492Z,8.93
2019-02-07T19:37:11.202Z,9.20
2019-02-07T19:38:53.765Z,9.48
2019-02-07T19:40:36.523Z,7.80
2019-02-07T19:42:19.218Z,9.35
2019-02-07T19:44:01.824Z,9.00
2019-02-07T19:45:44.436Z,9.78
2019-02-07T19:47:27.048Z,9.93
2019-02-07T19:49:09.601Z,9.78
2019-02-07T19:50:53.715Z,10.25
2019-02-07T19:52:36.412Z,9.60
2019-02-07T19:54:19.153Z,10.08
2019-02-07T19:56:02.092Z,9.35
2019-02-07T19:57:44.679Z,10.20
2019-02-07T19:59:27.676Z,9.95
2019-02-07T20:01:10.223Z,9.00
2019-02-07T20:02:53.012Z,9.98
2019-02-07T20:04:35.653Z,8.58
2019-02-07T20:06:18.331Z,9.43
2019-02-07T20:08:00.890Z,9.08
2019-02-07T20:09:43.542Z,9.40
2019-02-07T20:11:26.119Z,9.45
2019-02-07T20:13:08.707Z,9.25
2019-02-07T20:14:51.262Z,9.70
2019-02-07T20:16:33.819Z,8.40
2019-02-07T20:18:16.372Z,9.83
2019-02-07T20:19:58.928Z,9.40
2019-02-07T20:21:41.481Z,8.28
2019-02-07T20:23:24.040Z,8.70
2019-02-07T20:25:08.296Z,8.90
2019-02-07T20:26:50.843Z,9.45
2019-02-07T20:28:33.434Z,8.98
2019-02-07T20:30:20.310Z,9.13
2019-02-07T20:32:02.915Z,9.25
2019-02-07T20:33:45.428Z,9.03
2019-02-07T20:35:27.992Z,8.20
2019-02-07T20:37:10.532Z,8.65
2019-02-07T20:38:53.094Z,8.93
2019-02-07T20:40:35.648Z,8.68
2019-02-07T20:42:18.504Z,9.15
2019-02-07T20:44:01.061Z,8.75
2019-02-07T20:45:44.030Z,8.85
2019-02-07T20:47:26.574Z,7.70
2019-02-07T20:49:09.141Z,8.25
2019-02-07T20:52:08.725Z,8.48
2019-02-07T20:54:36.667Z,7.95
2019-02-07T20:57:04.228Z,8.65
2019-02-07T20:59:31.788Z,7.90
2019-02-07T21:01:59.347Z,8.55
2019-02-07T21:04:26.892Z,8.35
2019-02-07T21:06:54.435Z,7.78
2019-02-07T21:09:22.009Z,8.10
2019-02-07T21:11:49.556Z,8.40
2019-02-07T21:14:17.448Z,7.70
2019-02-07T21:16:45.008Z,8.08
2019-02-07T21:19:12.563Z,8.40
2019-02-07T21:21:40.192Z,8.48
2019-02-07T21:24:07.736Z,7.95
2019-02-07T21:26:35.288Z,8.53
2019-02-07T21:29:02.847Z,7.87
2019-02-07T21:31:30.445Z,7.70
2019-02-07T21:33:58.194Z,8.43
2019-02-07T21:36:25.795Z,7.10
2019-02-07T21:38:53.300Z,7.75
2019-02-07T21:41:20.916Z,8.28
2019-02-07T21:43:48.468Z,7.97
2019-02-07T21:46:16.029Z,8.03
2019-02-07T21:48:43.597Z,7.80
2019-02-07T21:51:11.138Z,7.90
2019-02-07T21:53:38.928Z,8.18
2019-02-07T21:56:06.479Z,7.17
2019-02-07T21:58:34.038Z,7.95
2019-02-07T22:01:01.580Z,7.42
2019-02-07T22:03:29.140Z,7.72
2019-02-07T22:05:56.695Z,8.20
2019-02-07T22:08:24.250Z,7.22
2019-02-07T22:10:52.205Z,7.35
2019-02-07T22:13:19.763Z,7.30
2019-02-07T22:15:47.317Z,7.67
2019-02-07T22:18:14.871Z,8.25
2019-02-07T22:20:42.429Z,7.85
2019-02-07T22:23:09.988Z,7.20
2019-02-07T22:25:37.541Z,7.92
2019-02-07T22:28:05.487Z,6.95
2019-02-07T22:30:36.472Z,7.78
2019-02-07T22:33:04.328Z,7.83
2019-02-07T22:35:31.879Z,7.03
2019-02-07T22:37:59.440Z,7.65
2019-02-07T22:40:26.985Z,7.75
2019-02-07T22:42:54.545Z,7.22
2019-02-07T22:45:23.402Z,8.00
2019-02-07T22:47:50.953Z,7.17
2019-02-07T22:50:22.519Z,8.25
2019-02-07T22:52:56.736Z,7.75
2019-02-07T22:55:19.268Z,6.78
2019-02-07T22:57:46.838Z,7.78
2019-02-07T23:00:31.568Z,7.65
2019-02-07T23:02:59.131Z,6.85
2019-02-07T23:05:26.671Z,7.97
2019-02-07T23:07:54.245Z,7.30
2019-02-07T23:10:21.792Z,7.97
2019-02-07T23:12:49.353Z,7.60
2019-02-07T23:15:17.299Z,6.80
2019-02-07T23:17:44.857Z,7.58
2019-02-07T23:20:12.435Z,7.17
2019-02-07T23:22:39.984Z,7.53
2019-02-07T23:25:08.245Z,7.78
2019-02-07T23:27:35.787Z,7.62
2019-02-07T23:30:04.144Z,7.45
2019-02-07T23:32:31.991Z,7.35
2019-02-07T23:34:59.554Z,6.95
2019-02-07T23:37:27.166Z,7.37
2019-02-07T23:40:14.125Z,7.12
2019-02-07T23:42:41.722Z,6.87
2019-02-07T23:45:10.220Z,7.00
2019-02-07T23:47:37.815Z,7.28
2019-02-07T23:50:06.117Z,7.00
2019-02-07T23:52:33.704Z,6.97
2019-02-07T23:55:01.286Z,7.55
2019-02-07T23:57:28.820Z,7.15
2019-02-07T23:59:56.391Z,7.70
